sensor_id;sensor_type;location;lat;lon;timestamp;pressure;altitude;pressure_sealevel;temperature;humidity
51237;BME280;37312;47.550;18.818;2022-08-04T00:00:14;99220.19;;;19.08;62.87
51237;BME280;37312;47.550;18.818;2022-08-04T00:02:58;99224.13;;;18.97;61.51
51237;BME280;37312;47.550;18.818;2022-08-04T00:10:58;99218.91;;;19.01;61.45
51237;BME280;37312;47.550;18.818;2022-08-04T00:13:26;99212.94;;;18.99;62.04
51237;BME280;37312;47.550;18.818;2022-08-04T00:15:56;99219.78;;;18.96;61.85
51237;BME280;37312;47.550;18.818;2022-08-04T00:18:26;99221.41;;;18.97;60.60
51237;BME280;37312;47.550;18.818;2022-08-04T00:20:59;99220.78;;;19.05;61.48
51237;BME280;37312;47.550;18.818;2022-08-04T00:23:29;99213.72;;;19.04;62.30
51237;BME280;37312;47.550;18.818;2022-08-04T00:25:59;99215.81;;;19.12;62.00
51237;BME280;37312;47.550;18.818;2022-08-04T00:28:27;99211.66;;;19.20;62.27
51237;BME280;37312;47.550;18.818;2022-08-04T00:30:53;99224.47;;;19.20;62.61
51237;BME280;37312;47.550;18.818;2022-08-04T00:33:20;99225.00;;;19.22;63.43
51237;BME280;37312;47.550;18.818;2022-08-04T00:35:50;99226.88;;;19.26;63.93
51237;BME280;37312;47.550;18.818;2022-08-04T00:38:17;99224.37;;;19.30;63.87
51237;BME280;37312;47.550;18.818;2022-08-04T00:40:56;99232.97;;;19.42;63.70
51237;BME280;37312;47.550;18.818;2022-08-04T00:43:31;99237.16;;;19.64;62.74
51237;BME280;37312;47.550;18.818;2022-08-04T00:48:55;99225.53;;;19.77;65.05
51237;BME280;37312;47.550;18.818;2022-08-04T00:54:41;99232.28;;;19.85;65.97
51237;BME280;37312;47.550;18.818;2022-08-04T00:57:45;99227.12;;;19.83;66.47
51237;BME280;37312;47.550;18.818;2022-08-04T01:00:15;99231.22;;;20.05;66.94
51237;BME280;37312;47.550;18.818;2022-08-04T01:10:50;99229.72;;;20.74;66.18
51237;BME280;37312;47.550;18.818;2022-08-04T01:13:25;99227.91;;;20.83;66.11
51237;BME280;37312;47.550;18.818;2022-08-04T01:16:05;99231.69;;;20.88;66.23
51237;BME280;37312;47.550;18.818;2022-08-04T01:21:30;99220.22;;;20.86;65.42
51237;BME280;37312;47.550;18.818;2022-08-04T01:24:28;99218.03;;;21.01;65.33
51237;BME280;37312;47.550;18.818;2022-08-04T01:27:05;99228.03;;;21.25;64.24
51237;BME280;37312;47.550;18.818;2022-08-04T01:29:39;99230.38;;;21.32;64.45
51237;BME280;37312;47.550;18.818;2022-08-04T01:32:19;99222.47;;;21.30;64.56
51237;BME280;37312;47.550;18.818;2022-08-04T01:34:51;99228.97;;;21.34;63.30
51237;BME280;37312;47.550;18.818;2022-08-04T01:37:37;99226.38;;;21.43;61.23
51237;BME280;37312;47.550;18.818;2022-08-04T01:40:06;99225.97;;;21.50;60.97
51237;BME280;37312;47.550;18.818;2022-08-04T01:42:35;99229.00;;;21.48;60.77
51237;BME280;37312;47.550;18.818;2022-08-04T01:45:04;99230.34;;;21.51;60.49
51237;BME280;37312;47.550;18.818;2022-08-04T01:47:34;99223.53;;;21.48;60.81
51237;BME280;37312;47.550;18.818;2022-08-04T01:50:07;99221.81;;;21.52;60.93
51237;BME280;37312;47.550;18.818;2022-08-04T01:52:41;99223.97;;;21.55;61.19
51237;BME280;37312;47.550;18.818;2022-08-04T01:55:10;99227.69;;;21.59;61.03
51237;BME280;37312;47.550;18.818;2022-08-04T01:57:48;99218.59;;;21.64;60.92
51237;BME280;37312;47.550;18.818;2022-08-04T02:00:20;99214.94;;;21.69;60.54
51237;BME280;37312;47.550;18.818;2022-08-04T02:02:46;99213.69;;;21.75;60.11
51237;BME280;37312;47.550;18.818;2022-08-04T02:05:15;99219.97;;;21.75;60.17
51237;BME280;37312;47.550;18.818;2022-08-04T02:18:22;99213.59;;;21.52;60.94
51237;BME280;37312;47.550;18.818;2022-08-04T02:20:56;99207.91;;;21.49;61.08
51237;BME280;37312;47.550;18.818;2022-08-04T02:23:33;99212.16;;;21.41;61.46
51237;BME280;37312;47.550;18.818;2022-08-04T02:26:05;99205.63;;;21.37;61.21
51237;BME280;37312;47.550;18.818;2022-08-04T02:28:46;99202.84;;;21.42;60.78
51237;BME280;37312;47.550;18.818;2022-08-04T02:31:30;99201.19;;;21.41;60.75
51237;BME280;37312;47.550;18.818;2022-08-04T02:36:40;99196.59;;;21.36;60.42
51237;BME280;37312;47.550;18.818;2022-08-04T02:39:08;99195.28;;;21.34;60.47
51237;BME280;37312;47.550;18.818;2022-08-04T02:41:36;99201.37;;;21.31;60.55
51237;BME280;37312;47.550;18.818;2022-08-04T02:44:05;99196.00;;;21.26;61.74
51237;BME280;37312;47.550;18.818;2022-08-04T02:46:33;99202.78;;;21.14;63.04
51237;BME280;37312;47.550;18.818;2022-08-04T02:49:05;99203.41;;;20.92;64.35
51237;BME280;37312;47.550;18.818;2022-08-04T02:51:35;99208.63;;;20.75;64.76
51237;BME280;37312;47.550;18.818;2022-08-04T02:54:04;99201.16;;;20.61;64.56
51237;BME280;37312;47.550;18.818;2022-08-04T02:56:32;99198.34;;;20.67;64.39
51237;BME280;37312;47.550;18.818;2022-08-04T03:01:26;99201.31;;;20.51;65.35
51237;BME280;37312;47.550;18.818;2022-08-04T03:09:57;99198.72;;;20.22;66.61
51237;BME280;37312;47.550;18.818;2022-08-04T03:29:22;99206.13;;;20.59;64.59
51237;BME280;37312;47.550;18.818;2022-08-04T03:35:10;99219.41;;;20.09;68.80
51237;BME280;37312;47.550;18.818;2022-08-04T03:41:05;99231.09;;;20.15;65.20
51237;BME280;37312;47.550;18.818;2022-08-04T03:43:56;99219.12;;;20.49;63.33
51237;BME280;37312;47.550;18.818;2022-08-04T03:46:52;99218.34;;;20.67;62.83
51237;BME280;37312;47.550;18.818;2022-08-04T03:53:02;99231.22;;;20.24;67.36
51237;BME280;37312;47.550;18.818;2022-08-04T03:58:47;99231.37;;;19.94;68.65
51237;BME280;37312;47.550;18.818;2022-08-04T04:04:30;99229.53;;;19.85;69.59
51237;BME280;37312;47.550;18.818;2022-08-04T04:13:23;99233.44;;;19.78;70.74
51237;BME280;37312;47.550;18.818;2022-08-04T04:15:50;99241.13;;;19.76;72.55
51237;BME280;37312;47.550;18.818;2022-08-04T04:24:48;99236.84;;;20.32;68.95
51237;BME280;37312;47.550;18.818;2022-08-04T04:30:06;99238.72;;;20.37;69.39
51237;BME280;37312;47.550;18.818;2022-08-04T04:32:53;99240.72;;;20.31;71.23
51237;BME280;37312;47.550;18.818;2022-08-04T04:35:37;99237.44;;;20.48;63.32
51237;BME280;37312;47.550;18.818;2022-08-04T04:38:43;99241.59;;;20.83;69.44
51237;BME280;37312;47.550;18.818;2022-08-04T04:46:42;99240.56;;;20.98;66.86
51237;BME280;37312;47.550;18.818;2022-08-04T04:49:19;99234.47;;;21.01;68.10
51237;BME280;37312;47.550;18.818;2022-08-04T04:54:33;99247.94;;;21.31;66.35
51237;BME280;37312;47.550;18.818;2022-08-04T04:57:12;99245.19;;;21.31;64.87
51237;BME280;37312;47.550;18.818;2022-08-04T04:59:48;99250.94;;;21.48;65.33
51237;BME280;37312;47.550;18.818;2022-08-04T05:13:51;99261.41;;;23.87;55.44
51237;BME280;37312;47.550;18.818;2022-08-04T05:16:57;99262.66;;;24.21;54.80
51237;BME280;37312;47.550;18.818;2022-08-04T05:19:32;99262.25;;;24.53;50.57
51237;BME280;37312;47.550;18.818;2022-08-04T05:22:11;99266.78;;;24.84;48.88
51237;BME280;37312;47.550;18.818;2022-08-04T05:24:42;99277.00;;;25.01;49.11
51237;BME280;37312;47.550;18.818;2022-08-04T05:27:33;99267.09;;;25.09;49.43
51237;BME280;37312;47.550;18.818;2022-08-04T05:30:03;99272.91;;;25.33;47.54
51237;BME280;37312;47.550;18.818;2022-08-04T05:32:57;99273.28;;;25.70;48.06
51237;BME280;37312;47.550;18.818;2022-08-04T05:35:35;99267.63;;;26.65;45.81
51237;BME280;37312;47.550;18.818;2022-08-04T05:38:06;99274.75;;;27.41;42.17
51237;BME280;37312;47.550;18.818;2022-08-04T05:40:36;99278.38;;;27.78;42.14
51237;BME280;37312;47.550;18.818;2022-08-04T05:43:04;99269.69;;;27.43;43.16
51237;BME280;37312;47.550;18.818;2022-08-04T05:45:33;99275.28;;;26.80;43.56
51237;BME280;37312;47.550;18.818;2022-08-04T05:48:01;99276.56;;;26.61;43.87
51237;BME280;37312;47.550;18.818;2022-08-04T05:50:28;99285.47;;;26.37;44.58
51237;BME280;37312;47.550;18.818;2022-08-04T05:52:56;99290.44;;;26.74;45.68
51237;BME280;37312;47.550;18.818;2022-08-04T05:55:24;99286.03;;;27.94;41.01
51237;BME280;37312;47.550;18.818;2022-08-04T05:57:51;99285.22;;;28.18;39.04
51237;BME280;37312;47.550;18.818;2022-08-04T06:00:18;99291.28;;;29.01;38.33
51237;BME280;37312;47.550;18.818;2022-08-04T06:02:46;99289.00;;;29.31;37.92
51237;BME280;37312;47.550;18.818;2022-08-04T06:05:15;99292.87;;;29.14;39.70
51237;BME280;37312;47.550;18.818;2022-08-04T06:07:44;99287.78;;;29.16;38.18
51237;BME280;37312;47.550;18.818;2022-08-04T06:10:10;99301.81;;;29.36;40.13
51237;BME280;37312;47.550;18.818;2022-08-04T06:12:43;99299.56;;;29.41;36.94
51237;BME280;37312;47.550;18.818;2022-08-04T06:15:13;99299.84;;;29.36;37.60
51237;BME280;37312;47.550;18.818;2022-08-04T06:17:49;99294.41;;;28.46;38.53
51237;BME280;37312;47.550;18.818;2022-08-04T06:20:18;99298.00;;;29.00;36.67
51237;BME280;37312;47.550;18.818;2022-08-04T06:22:48;99292.50;;;29.44;35.02
51237;BME280;37312;47.550;18.818;2022-08-04T06:25:19;99299.50;;;29.54;36.43
51237;BME280;37312;47.550;18.818;2022-08-04T06:27:48;99295.34;;;29.31;34.59
51237;BME280;37312;47.550;18.818;2022-08-04T06:30:15;99283.53;;;29.06;36.07
51237;BME280;37312;47.550;18.818;2022-08-04T06:32:44;99290.78;;;29.39;34.82
51237;BME280;37312;47.550;18.818;2022-08-04T06:35:22;99292.31;;;30.48;35.10
51237;BME280;37312;47.550;18.818;2022-08-04T06:37:50;99292.41;;;31.26;32.92
51237;BME280;37312;47.550;18.818;2022-08-04T06:40:19;99294.31;;;31.22;31.64
51237;BME280;37312;47.550;18.818;2022-08-04T06:42:47;99298.53;;;31.15;32.38
51237;BME280;37312;47.550;18.818;2022-08-04T06:45:14;99297.47;;;30.65;32.22
51237;BME280;37312;47.550;18.818;2022-08-04T06:47:42;99292.13;;;30.57;33.64
51237;BME280;37312;47.550;18.818;2022-08-04T06:50:10;99291.75;;;31.98;31.69
51237;BME280;37312;47.550;18.818;2022-08-04T06:52:37;99293.06;;;32.57;29.88
51237;BME280;37312;47.550;18.818;2022-08-04T06:55:04;99291.97;;;31.89;30.07
51237;BME280;37312;47.550;18.818;2022-08-04T06:57:32;99286.56;;;30.37;32.12
51237;BME280;37312;47.550;18.818;2022-08-04T07:00:06;99294.63;;;29.79;33.88
51237;BME280;37312;47.550;18.818;2022-08-04T07:02:41;99291.84;;;29.95;34.10
51237;BME280;37312;47.550;18.818;2022-08-04T07:05:09;99301.84;;;29.51;35.10
51237;BME280;37312;47.550;18.818;2022-08-04T07:07:35;99300.78;;;29.00;34.09
51237;BME280;37312;47.550;18.818;2022-08-04T07:10:02;99302.72;;;29.12;35.17
51237;BME280;37312;47.550;18.818;2022-08-04T07:12:29;99303.16;;;29.42;33.87
51237;BME280;37312;47.550;18.818;2022-08-04T07:14:56;99310.75;;;29.73;34.19
51237;BME280;37312;47.550;18.818;2022-08-04T07:17:23;99301.16;;;30.34;33.26
51237;BME280;37312;47.550;18.818;2022-08-04T07:19:49;99300.75;;;30.87;33.05
51237;BME280;37312;47.550;18.818;2022-08-04T07:22:15;99301.63;;;30.91;32.13
51237;BME280;37312;47.550;18.818;2022-08-04T07:24:41;99303.19;;;30.72;32.19
51237;BME280;37312;47.550;18.818;2022-08-04T07:27:07;99299.47;;;30.84;32.46
51237;BME280;37312;47.550;18.818;2022-08-04T07:29:34;99301.25;;;31.31;32.23
51237;BME280;37312;47.550;18.818;2022-08-04T07:32:00;99300.31;;;32.12;30.39
51237;BME280;37312;47.550;18.818;2022-08-04T07:34:27;99303.03;;;32.89;28.12
51237;BME280;37312;47.550;18.818;2022-08-04T07:36:55;99305.94;;;33.30;28.71
51237;BME280;37312;47.550;18.818;2022-08-04T07:39:24;99309.75;;;33.52;27.78
51237;BME280;37312;47.550;18.818;2022-08-04T07:41:51;99303.84;;;33.23;28.48
51237;BME280;37312;47.550;18.818;2022-08-04T07:44:18;99308.88;;;33.85;26.93
51237;BME280;37312;47.550;18.818;2022-08-04T07:46:45;99299.41;;;35.36;25.87
51237;BME280;37312;47.550;18.818;2022-08-04T07:49:11;99295.91;;;35.93;25.31
51237;BME280;37312;47.550;18.818;2022-08-04T07:51:38;99293.94;;;36.11;24.67
51237;BME280;37312;47.550;18.818;2022-08-04T07:54:05;99299.13;;;37.41;23.22
51237;BME280;37312;47.550;18.818;2022-08-04T07:56:38;99292.16;;;36.89;24.03
51237;BME280;37312;47.550;18.818;2022-08-04T07:59:05;99297.84;;;35.57;25.25
51237;BME280;37312;47.550;18.818;2022-08-04T08:01:33;99289.91;;;35.95;24.68
51237;BME280;37312;47.550;18.818;2022-08-04T08:04:00;99289.91;;;35.69;24.39
51237;BME280;37312;47.550;18.818;2022-08-04T08:06:27;99293.09;;;35.97;24.59
51237;BME280;37312;47.550;18.818;2022-08-04T08:08:55;99294.31;;;37.38;22.94
51237;BME280;37312;47.550;18.818;2022-08-04T08:11:21;99298.34;;;38.79;21.52
51237;BME280;37312;47.550;18.818;2022-08-04T08:13:47;99294.47;;;39.04;21.39
51237;BME280;37312;47.550;18.818;2022-08-04T08:16:13;99285.28;;;39.81;20.28
51237;BME280;37312;47.550;18.818;2022-08-04T08:18:39;99281.47;;;39.40;20.47
51237;BME280;37312;47.550;18.818;2022-08-04T08:21:06;99291.91;;;37.43;22.07
51237;BME280;37312;47.550;18.818;2022-08-04T08:23:35;99293.03;;;37.49;22.37
51237;BME280;37312;47.550;18.818;2022-08-04T08:26:01;99288.94;;;37.65;21.34
51237;BME280;37312;47.550;18.818;2022-08-04T08:28:27;99288.53;;;38.18;22.08
51237;BME280;37312;47.550;18.818;2022-08-04T08:30:53;99283.94;;;37.31;23.06
51237;BME280;37312;47.550;18.818;2022-08-04T08:33:20;99290.69;;;38.04;21.71
51237;BME280;37312;47.550;18.818;2022-08-04T08:36:00;99292.69;;;39.71;20.67
51237;BME280;37312;47.550;18.818;2022-08-04T08:44:33;99286.56;;;40.23;19.00
51237;BME280;37312;47.550;18.818;2022-08-04T08:58:27;99292.06;;;40.54;18.01
51237;BME280;37312;47.550;18.818;2022-08-04T09:03:37;99292.91;;;41.31;17.06
51237;BME280;37312;47.550;18.818;2022-08-04T09:11:39;99281.31;;;40.26;18.46
51237;BME280;37312;47.550;18.818;2022-08-04T09:14:18;99287.59;;;40.77;19.02
51237;BME280;37312;47.550;18.818;2022-08-04T09:17:02;99285.03;;;41.59;17.95
51237;BME280;37312;47.550;18.818;2022-08-04T09:19:38;99284.06;;;41.98;17.61
51237;BME280;37312;47.550;18.818;2022-08-04T09:25:05;99286.63;;;41.23;17.08
51237;BME280;37312;47.550;18.818;2022-08-04T09:28:25;99283.75;;;41.07;17.35
51237;BME280;37312;47.550;18.818;2022-08-04T09:36:00;99280.41;;;38.66;19.08
51237;BME280;37312;47.550;18.818;2022-08-04T09:38:55;99277.97;;;38.30;20.81
51237;BME280;37312;47.550;18.818;2022-08-04T09:45:06;99282.94;;;37.63;21.77
51237;BME280;37312;47.550;18.818;2022-08-04T09:50:36;99277.41;;;37.45;21.05
51237;BME280;37312;47.550;18.818;2022-08-04T09:56:31;99255.47;;;35.94;23.78
51237;BME280;37312;47.550;18.818;2022-08-04T09:59:21;99258.22;;;36.48;23.32
51237;BME280;37312;47.550;18.818;2022-08-04T10:04:18;99251.38;;;36.60;23.41
51237;BME280;37312;47.550;18.818;2022-08-04T10:07:14;99253.00;;;36.36;23.24
51237;BME280;37312;47.550;18.818;2022-08-04T10:10:11;99253.87;;;35.64;22.54
51237;BME280;37312;47.550;18.818;2022-08-04T10:15:30;99247.88;;;35.98;22.63
51237;BME280;37312;47.550;18.818;2022-08-04T10:23:54;99241.06;;;35.92;23.34
51237;BME280;37312;47.550;18.818;2022-08-04T10:31:58;99240.19;;;36.38;23.60
51237;BME280;37312;47.550;18.818;2022-08-04T10:34:32;99236.66;;;36.13;23.53
51237;BME280;37312;47.550;18.818;2022-08-04T10:39:53;99228.25;;;35.62;23.12
51237;BME280;37312;47.550;18.818;2022-08-04T10:43:02;99234.22;;;35.43;23.86
51237;BME280;37312;47.550;18.818;2022-08-04T10:45:38;99234.22;;;35.39;24.92
51237;BME280;37312;47.550;18.818;2022-08-04T10:48:14;99231.19;;;34.71;24.86
51237;BME280;37312;47.550;18.818;2022-08-04T10:50:51;99227.25;;;34.76;25.27
51237;BME280;37312;47.550;18.818;2022-08-04T10:53:23;99224.09;;;34.88;25.30
51237;BME280;37312;47.550;18.818;2022-08-04T10:56:01;99216.72;;;34.51;24.90
51237;BME280;37312;47.550;18.818;2022-08-04T10:58:34;99221.22;;;34.70;25.63
51237;BME280;37312;47.550;18.818;2022-08-04T11:01:06;99220.41;;;34.66;25.14
51237;BME280;37312;47.550;18.818;2022-08-04T11:03:55;99218.72;;;34.54;25.60
51237;BME280;37312;47.550;18.818;2022-08-04T11:06:23;99215.50;;;34.45;24.53
51237;BME280;37312;47.550;18.818;2022-08-04T11:08:54;99206.84;;;34.05;25.64
51237;BME280;37312;47.550;18.818;2022-08-04T11:11:42;99214.25;;;34.39;25.09
51237;BME280;37312;47.550;18.818;2022-08-04T11:14:11;99202.34;;;34.53;24.63
51237;BME280;37312;47.550;18.818;2022-08-04T11:17:06;99201.66;;;34.74;25.05
51237;BME280;37312;47.550;18.818;2022-08-04T11:19:46;99202.53;;;35.06;24.04
51237;BME280;37312;47.550;18.818;2022-08-04T11:27:36;99204.53;;;35.06;24.47
51237;BME280;37312;47.550;18.818;2022-08-04T11:30:07;99202.88;;;34.83;24.71
51237;BME280;37312;47.550;18.818;2022-08-04T11:32:49;99197.66;;;34.75;24.08
51237;BME280;37312;47.550;18.818;2022-08-04T11:36:01;99199.00;;;34.22;25.23
51237;BME280;37312;47.550;18.818;2022-08-04T11:38:48;99196.81;;;34.63;26.04
51237;BME280;37312;47.550;18.818;2022-08-04T11:41:20;99192.78;;;34.61;25.26
51237;BME280;37312;47.550;18.818;2022-08-04T11:43:55;99194.47;;;34.69;25.15
51237;BME280;37312;47.550;18.818;2022-08-04T11:46:31;99193.13;;;34.48;24.91
51237;BME280;37312;47.550;18.818;2022-08-04T11:49:48;99190.69;;;34.36;26.35
51237;BME280;37312;47.550;18.818;2022-08-04T11:51:59;99178.37;;;34.52;25.47
51237;BME280;37312;47.550;18.818;2022-08-04T11:54:26;99178.44;;;34.62;25.60
51237;BME280;37312;47.550;18.818;2022-08-04T11:56:53;99180.03;;;34.63;24.93
51237;BME280;37312;47.550;18.818;2022-08-04T11:59:21;99171.56;;;34.42;25.98
51237;BME280;37312;47.550;18.818;2022-08-04T12:02:01;99177.56;;;34.55;26.03
51237;BME280;37312;47.550;18.818;2022-08-04T12:04:57;99171.59;;;34.56;25.13
51237;BME280;37312;47.550;18.818;2022-08-04T12:10:20;99164.00;;;34.53;24.64
51237;BME280;37312;47.550;18.818;2022-08-04T12:13:05;99160.47;;;33.90;24.13
51237;BME280;37312;47.550;18.818;2022-08-04T12:15:46;99159.97;;;33.77;25.22
51237;BME280;37312;47.550;18.818;2022-08-04T12:18:22;99161.25;;;33.94;25.11
51237;BME280;37312;47.550;18.818;2022-08-04T12:20:56;99162.00;;;33.84;24.82
51237;BME280;37312;47.550;18.818;2022-08-04T12:23:28;99160.13;;;34.02;25.51
51237;BME280;37312;47.550;18.818;2022-08-04T12:25:59;99152.94;;;34.01;23.69
51237;BME280;37312;47.550;18.818;2022-08-04T12:28:31;99142.91;;;33.93;23.80
51237;BME280;37312;47.550;18.818;2022-08-04T12:31:13;99152.66;;;34.17;23.68
51237;BME280;37312;47.550;18.818;2022-08-04T12:34:07;99137.06;;;34.13;24.51
51237;BME280;37312;47.550;18.818;2022-08-04T12:39:15;99141.75;;;33.98;25.65
51237;BME280;37312;47.550;18.818;2022-08-04T12:42:06;99139.87;;;34.13;26.02
51237;BME280;37312;47.550;18.818;2022-08-04T12:44:40;99136.69;;;34.18;25.91
51237;BME280;37312;47.550;18.818;2022-08-04T12:47:08;99143.19;;;34.47;24.64
51237;BME280;37312;47.550;18.818;2022-08-04T12:49:36;99140.75;;;34.31;23.10
51237;BME280;37312;47.550;18.818;2022-08-04T12:52:07;99141.03;;;34.12;24.46
51237;BME280;37312;47.550;18.818;2022-08-04T12:54:34;99135.00;;;34.10;24.80
51237;BME280;37312;47.550;18.818;2022-08-04T12:57:05;99126.16;;;33.93;23.63
51237;BME280;37312;47.550;18.818;2022-08-04T12:59:51;99126.84;;;33.76;24.47
51237;BME280;37312;47.550;18.818;2022-08-04T13:02:29;99124.16;;;33.94;22.84
51237;BME280;37312;47.550;18.818;2022-08-04T13:05:03;99126.31;;;34.15;23.39
51237;BME280;37312;47.550;18.818;2022-08-04T13:07:48;99129.94;;;34.30;24.98
51237;BME280;37312;47.550;18.818;2022-08-04T13:10:19;99126.72;;;34.28;24.53
51237;BME280;37312;47.550;18.818;2022-08-04T13:13:04;99117.63;;;34.52;24.37
51237;BME280;37312;47.550;18.818;2022-08-04T13:15:36;99124.00;;;34.45;23.38
51237;BME280;37312;47.550;18.818;2022-08-04T13:18:11;99115.22;;;34.51;24.26
51237;BME280;37312;47.550;18.818;2022-08-04T13:20:38;99120.03;;;34.57;23.55
51237;BME280;37312;47.550;18.818;2022-08-04T13:23:07;99110.03;;;34.45;23.06
51237;BME280;37312;47.550;18.818;2022-08-04T13:25:39;99109.00;;;33.98;24.90
51237;BME280;37312;47.550;18.818;2022-08-04T13:28:11;99105.78;;;33.34;24.69
51237;BME280;37312;47.550;18.818;2022-08-04T13:30:38;99100.31;;;33.03;24.06
51237;BME280;37312;47.550;18.818;2022-08-04T13:33:04;99096.91;;;33.21;25.59
51237;BME280;37312;47.550;18.818;2022-08-04T13:35:32;99098.81;;;33.61;26.19
51237;BME280;37312;47.550;18.818;2022-08-04T13:38:00;99093.00;;;33.88;25.50
51237;BME280;37312;47.550;18.818;2022-08-04T13:40:27;99090.22;;;33.92;26.25
51237;BME280;37312;47.550;18.818;2022-08-04T13:42:54;99090.34;;;34.17;26.07
51237;BME280;37312;47.550;18.818;2022-08-04T13:45:22;99088.00;;;34.30;24.39
51237;BME280;37312;47.550;18.818;2022-08-04T13:47:50;99073.66;;;34.38;24.91
51237;BME280;37312;47.550;18.818;2022-08-04T13:50:29;99084.06;;;34.52;24.73
51237;BME280;37312;47.550;18.818;2022-08-04T13:52:59;99078.53;;;34.66;25.74
51237;BME280;37312;47.550;18.818;2022-08-04T13:55:29;99074.56;;;34.82;24.51
51237;BME280;37312;47.550;18.818;2022-08-04T14:00:41;99066.16;;;34.64;24.12
51237;BME280;37312;47.550;18.818;2022-08-04T14:03:08;99066.56;;;34.62;24.02
51237;BME280;37312;47.550;18.818;2022-08-04T14:05:35;99072.88;;;34.48;23.30
51237;BME280;37312;47.550;18.818;2022-08-04T14:08:28;99066.44;;;34.30;25.40
51237;BME280;37312;47.550;18.818;2022-08-04T14:10:56;99063.69;;;34.48;24.16
51237;BME280;37312;47.550;18.818;2022-08-04T14:13:30;99061.69;;;34.41;23.97
51237;BME280;37312;47.550;18.818;2022-08-04T14:15:56;99063.19;;;34.14;25.00
51237;BME280;37312;47.550;18.818;2022-08-04T14:18:24;99064.72;;;34.04;24.51
51237;BME280;37312;47.550;18.818;2022-08-04T14:21:08;99052.81;;;34.21;24.67
51237;BME280;37312;47.550;18.818;2022-08-04T14:26:33;99056.72;;;34.02;24.29
51237;BME280;37312;47.550;18.818;2022-08-04T14:29:16;99057.53;;;34.03;24.46
51237;BME280;37312;47.550;18.818;2022-08-04T14:31:42;99060.31;;;33.99;24.42
51237;BME280;37312;47.550;18.818;2022-08-04T14:34:23;99057.00;;;33.76;24.17
51237;BME280;37312;47.550;18.818;2022-08-04T14:36:49;99050.59;;;33.68;23.60
51237;BME280;37312;47.550;18.818;2022-08-04T14:39:16;99046.97;;;33.64;23.79
51237;BME280;37312;47.550;18.818;2022-08-04T14:41:47;99042.91;;;33.54;24.38
51237;BME280;37312;47.550;18.818;2022-08-04T14:44:13;99042.00;;;33.39;23.87
51237;BME280;37312;47.550;18.818;2022-08-04T14:46:53;99040.81;;;33.40;24.49
51237;BME280;37312;47.550;18.818;2022-08-04T14:49:20;99046.41;;;33.40;26.36
51237;BME280;37312;47.550;18.818;2022-08-04T14:51:58;99044.47;;;33.48;26.03
51237;BME280;37312;47.550;18.818;2022-08-04T14:54:32;99045.03;;;33.72;25.30
51237;BME280;37312;47.550;18.818;2022-08-04T14:57:04;99049.91;;;33.96;24.66
51237;BME280;37312;47.550;18.818;2022-08-04T14:59:47;99044.75;;;34.05;25.52
51237;BME280;37312;47.550;18.818;2022-08-04T15:02:14;99046.44;;;34.14;25.78
51237;BME280;37312;47.550;18.818;2022-08-04T15:04:42;99044.38;;;34.03;24.56
51237;BME280;37312;47.550;18.818;2022-08-04T15:07:10;99039.44;;;33.72;24.60
51237;BME280;37312;47.550;18.818;2022-08-04T15:09:36;99041.13;;;33.94;24.48
51237;BME280;37312;47.550;18.818;2022-08-04T15:12:03;99049.56;;;34.09;25.15
51237;BME280;37312;47.550;18.818;2022-08-04T15:14:30;99045.97;;;34.04;22.97
51237;BME280;37312;47.550;18.818;2022-08-04T15:16:57;99049.16;;;33.99;24.00
51237;BME280;37312;47.550;18.818;2022-08-04T15:19:23;99044.22;;;33.68;23.78
51237;BME280;37312;47.550;18.818;2022-08-04T15:21:50;99031.06;;;33.75;24.08
51237;BME280;37312;47.550;18.818;2022-08-04T15:24:16;99036.25;;;33.73;25.67
51237;BME280;37312;47.550;18.818;2022-08-04T15:26:47;99040.69;;;33.85;26.57
51237;BME280;37312;47.550;18.818;2022-08-04T15:29:28;99035.94;;;33.96;25.23
51237;BME280;37312;47.550;18.818;2022-08-04T15:31:56;99033.09;;;33.82;25.39
51237;BME280;37312;47.550;18.818;2022-08-04T15:34:22;99031.88;;;33.76;24.82
51237;BME280;37312;47.550;18.818;2022-08-04T15:44:58;99031.88;;;33.83;24.42
51237;BME280;37312;47.550;18.818;2022-08-04T15:47:27;99027.03;;;33.66;24.34
51237;BME280;37312;47.550;18.818;2022-08-04T15:50:11;99021.22;;;33.30;24.88
51237;BME280;37312;47.550;18.818;2022-08-04T15:55:33;99024.81;;;32.86;24.84
51237;BME280;37312;47.550;18.818;2022-08-04T15:58:02;99011.84;;;33.04;25.89
51237;BME280;37312;47.550;18.818;2022-08-04T16:16:26;99003.19;;;32.72;28.20
51237;BME280;37312;47.550;18.818;2022-08-04T16:18:54;99002.78;;;32.70;27.20
51237;BME280;37312;47.550;18.818;2022-08-04T16:21:28;99006.75;;;32.69;27.41
51237;BME280;37312;47.550;18.818;2022-08-04T16:24:14;99001.50;;;32.56;27.21
51237;BME280;37312;47.550;18.818;2022-08-04T16:26:44;99001.78;;;32.48;26.78
51237;BME280;37312;47.550;18.818;2022-08-04T16:29:31;99009.25;;;32.40;26.41
51237;BME280;37312;47.550;18.818;2022-08-04T16:34:47;99002.09;;;32.39;26.48
51237;BME280;37312;47.550;18.818;2022-08-04T16:37:14;98998.00;;;32.29;26.53
51237;BME280;37312;47.550;18.818;2022-08-04T16:39:40;99001.53;;;32.26;27.53
51237;BME280;37312;47.550;18.818;2022-08-04T16:42:32;99003.47;;;32.18;27.48
51237;BME280;37312;47.550;18.818;2022-08-04T16:50:21;98990.75;;;31.87;30.87
51237;BME280;37312;47.550;18.818;2022-08-04T16:52:52;98989.81;;;31.76;30.57
51237;BME280;37312;47.550;18.818;2022-08-04T16:55:23;98989.63;;;31.62;31.35
51237;BME280;37312;47.550;18.818;2022-08-04T16:57:52;98993.56;;;31.57;31.04
51237;BME280;37312;47.550;18.818;2022-08-04T17:00:33;98989.47;;;31.51;29.10
51237;BME280;37312;47.550;18.818;2022-08-04T17:03:04;98991.94;;;31.56;28.29
51237;BME280;37312;47.550;18.818;2022-08-04T17:05:32;98997.03;;;31.50;29.78
51237;BME280;37312;47.550;18.818;2022-08-04T17:07:59;98990.94;;;31.41;30.20